sensor_id;sensor_type;location;lat;lon;timestamp;P1;durP1;ratioP1;P2;durP2;ratioP2
6951;SDS011;3515;50.138;8.502;2022-07-09T00:02:19;32;;;17;;
6951;SDS011;3515;50.138;8.502;2022-07-09T00:04:45;32;;;17;;
6951;SDS011;3515;50.138;8.502;2022-07-09T00:07:10;32;;;18;;
6951;SDS011;3515;50.138;8.502;2022-07-09T00:09:35;31;;;18;;
6951;SDS011;3515;50.138;8.502;2022-07-09T00:12:01;31;;;17;;
6951;SDS011;3515;50.138;8.502;2022-07-09T00:14:26;30;;;17;;
6951;SDS011;3515;50.138;8.502;2022-07-09T00:16:51;30;;;17;;
6951;SDS011;3515;50.138;8.502;2022-07-09T00:19:16;24;;;13;;
6951;SDS011;3515;50.138;8.502;2022-07-09T00:21:42;23;;;13;;
6951;SDS011;3515;50.138;8.502;2022-07-09T00:24:07;17;;;9;;
6951;SDS011;3515;50.138;8.502;2022-07-09T00:26:32;15;;;8;;
6951;SDS011;3515;50.138;8.502;2022-07-09T00:28:58;15;;;7;;
6951;SDS011;3515;50.138;8.502;2022-07-09T00:31:23;14;;;7;;
6951;SDS011;3515;50.138;8.502;2022-07-09T00:33:48;14;;;7;;
6951;SDS011;3515;50.138;8.502;2022-07-09T00:36:13;13;;;7;;
6951;SDS011;3515;50.138;8.502;2022-07-09T00:38:39;13;;;7;;
6951;SDS011;3515;50.138;8.502;2022-07-09T00:41:04;18;;;9;;
6951;SDS011;3515;50.138;8.502;2022-07-09T00:43:29;19;;;10;;
6951;SDS011;3515;50.138;8.502;2022-07-09T00:45:55;20;;;10;;
6951;SDS011;3515;50.138;8.502;2022-07-09T00:48:20;20;;;11;;
6951;SDS011;3515;50.138;8.502;2022-07-09T00:50:45;15;;;7;;
6951;SDS011;3515;50.138;8.502;2022-07-09T00:53:12;14;;;7;;
6951;SDS011;3515;50.138;8.502;2022-07-09T00:55:36;13;;;6;;
6951;SDS011;3515;50.138;8.502;2022-07-09T00:58:01;13;;;6;;
6951;SDS011;3515;50.138;8.502;2022-07-09T01:00:26;8;;;3;;
6951;SDS011;3515;50.138;8.502;2022-07-09T01:02:52;7;;;2;;
6951;SDS011;3515;50.138;8.502;2022-07-09T01:05:17;6;;;2;;
6951;SDS011;3515;50.138;8.502;2022-07-09T01:07:42;6;;;2;;
6951;SDS011;3515;50.138;8.502;2022-07-09T01:10:08;5;;;1;;
6951;SDS011;3515;50.138;8.502;2022-07-09T01:12:33;5;;;1;;
6951;SDS011;3515;50.138;8.502;2022-07-09T01:14:58;5;;;1;;
6951;SDS011;3515;50.138;8.502;2022-07-09T01:17:23;10;;;4;;
6951;SDS011;3515;50.138;8.502;2022-07-09T01:19:49;10;;;5;;
6951;SDS011;3515;50.138;8.502;2022-07-09T01:22:14;10;;;5;;
6951;SDS011;3515;50.138;8.502;2022-07-09T01:24:39;10;;;5;;
6951;SDS011;3515;50.138;8.502;2022-07-09T01:27:05;10;;;5;;
6951;SDS011;3515;50.138;8.502;2022-07-09T01:29:30;10;;;5;;
6951;SDS011;3515;50.138;8.502;2022-07-09T01:31:55;10;;;5;;
6951;SDS011;3515;50.138;8.502;2022-07-09T01:34:20;10;;;5;;
6951;SDS011;3515;50.138;8.502;2022-07-09T01:36:45;5;;;2;;
6951;SDS011;3515;50.138;8.502;2022-07-09T01:39:11;9;;;4;;
6951;SDS011;3515;50.138;8.502;2022-07-09T01:41:36;10;;;5;;
6951;SDS011;3515;50.138;8.502;2022-07-09T01:44:01;10;;;5;;
6951;SDS011;3515;50.138;8.502;2022-07-09T01:46:26;10;;;5;;
6951;SDS011;3515;50.138;8.502;2022-07-09T01:48:52;11;;;5;;
6951;SDS011;3515;50.138;8.502;2022-07-09T01:51:17;11;;;5;;
6951;SDS011;3515;50.138;8.502;2022-07-09T01:53:42;11;;;5;;
6951;SDS011;3515;50.138;8.502;2022-07-09T01:56:08;11;;;5;;
6951;SDS011;3515;50.138;8.502;2022-07-09T01:58:33;6;;;2;;
6951;SDS011;3515;50.138;8.502;2022-07-09T02:00:58;5;;;1;;
6951;SDS011;3515;50.138;8.502;2022-07-09T02:03:23;5;;;1;;
6951;SDS011;3515;50.138;8.502;2022-07-09T02:05:49;4;;;1;;
6951;SDS011;3515;50.138;8.502;2022-07-09T02:08:14;8;;;4;;
6951;SDS011;3515;50.138;8.502;2022-07-09T02:10:46;9;;;4;;
6951;SDS011;3515;50.138;8.502;2022-07-09T02:13:09;9;;;4;;
6951;SDS011;3515;50.138;8.502;2022-07-09T02:15:35;9;;;4;;
6951;SDS011;3515;50.138;8.502;2022-07-09T02:18:00;9;;;4;;
6951;SDS011;3515;50.138;8.502;2022-07-09T02:20:25;9;;;4;;
6951;SDS011;3515;50.138;8.502;2022-07-09T02:22:50;9;;;4;;
6951;SDS011;3515;50.138;8.502;2022-07-09T02:25:16;9;;;4;;
6951;SDS011;3515;50.138;8.502;2022-07-09T02:27:41;9;;;5;;
6951;SDS011;3515;50.138;8.502;2022-07-09T02:30:07;15;;;8;;
6951;SDS011;3515;50.138;8.502;2022-07-09T02:32:32;16;;;8;;
6951;SDS011;3515;50.138;8.502;2022-07-09T02:34:57;16;;;8;;
6951;SDS011;3515;50.138;8.502;2022-07-09T02:37:22;17;;;9;;
6951;SDS011;3515;50.138;8.502;2022-07-09T02:39:47;17;;;9;;
6951;SDS011;3515;50.138;8.502;2022-07-09T02:42:13;17;;;9;;
6951;SDS011;3515;50.138;8.502;2022-07-09T02:44:38;17;;;9;;
6951;SDS011;3515;50.138;8.502;2022-07-09T02:47:04;13;;;6;;
6951;SDS011;3515;50.138;8.502;2022-07-09T02:49:29;7;;;2;;
6951;SDS011;3515;50.138;8.502;2022-07-09T02:51:54;5;;;1;;
6951;SDS011;3515;50.138;8.502;2022-07-09T02:54:19;5;;;1;;
6951;SDS011;3515;50.138;8.502;2022-07-09T02:56:44;5;;;1;;
6951;SDS011;3515;50.138;8.502;2022-07-09T02:59:10;5;;;1;;
6951;SDS011;3515;50.138;8.502;2022-07-09T03:01:35;9;;;3;;
6951;SDS011;3515;50.138;8.502;2022-07-09T03:04:01;10;;;4;;
6951;SDS011;3515;50.138;8.502;2022-07-09T03:06:26;15;;;7;;
6951;SDS011;3515;50.138;8.502;2022-07-09T03:08:51;15;;;7;;
6951;SDS011;3515;50.138;8.502;2022-07-09T03:11:17;16;;;8;;
6951;SDS011;3515;50.138;8.502;2022-07-09T03:13:42;16;;;8;;
6951;SDS011;3515;50.138;8.502;2022-07-09T03:16:07;16;;;8;;
6951;SDS011;3515;50.138;8.502;2022-07-09T03:18:33;16;;;8;;
6951;SDS011;3515;50.138;8.502;2022-07-09T03:20:58;12;;;5;;
6951;SDS011;3515;50.138;8.502;2022-07-09T03:23:23;12;;;5;;
6951;SDS011;3515;50.138;8.502;2022-07-09T03:25:49;7;;;2;;
6951;SDS011;3515;50.138;8.502;2022-07-09T03:28:14;6;;;1;;
6951;SDS011;3515;50.138;8.502;2022-07-09T03:30:39;5;;;1;;
6951;SDS011;3515;50.138;8.502;2022-07-09T03:33:04;6;;;1;;
6951;SDS011;3515;50.138;8.502;2022-07-09T03:35:30;6;;;1;;
6951;SDS011;3515;50.138;8.502;2022-07-09T03:37:55;6;;;1;;
6951;SDS011;3515;50.138;8.502;2022-07-09T03:40:20;5;;;1;;
6951;SDS011;3515;50.138;8.502;2022-07-09T03:42:46;5;;;1;;
6951;SDS011;3515;50.138;8.502;2022-07-09T03:45:11;4;;;1;;
6951;SDS011;3515;50.138;8.502;2022-07-09T03:47:36;4;;;1;;
6951;SDS011;3515;50.138;8.502;2022-07-09T03:50:01;4;;;1;;
6951;SDS011;3515;50.138;8.502;2022-07-09T03:52:27;4;;;1;;
6951;SDS011;3515;50.138;8.502;2022-07-09T03:54:52;4;;;1;;
6951;SDS011;3515;50.138;8.502;2022-07-09T03:57:17;4;;;1;;
6951;SDS011;3515;50.138;8.502;2022-07-09T03:59:42;4;;;1;;
6951;SDS011;3515;50.138;8.502;2022-07-09T04:02:08;4;;;1;;
6951;SDS011;3515;50.138;8.502;2022-07-09T04:04:33;4;;;1;;
6951;SDS011;3515;50.138;8.502;2022-07-09T04:06:58;4;;;1;;
6951;SDS011;3515;50.138;8.502;2022-07-09T04:09:23;4;;;1;;
6951;SDS011;3515;50.138;8.502;2022-07-09T04:11:49;4;;;1;;
6951;SDS011;3515;50.138;8.502;2022-07-09T04:14:14;9;;;4;;
6951;SDS011;3515;50.138;8.502;2022-07-09T04:16:39;10;;;4;;
6951;SDS011;3515;50.138;8.502;2022-07-09T04:19:05;11;;;5;;
6951;SDS011;3515;50.138;8.502;2022-07-09T04:21:30;16;;;8;;
6951;SDS011;3515;50.138;8.502;2022-07-09T04:23:55;18;;;9;;
6951;SDS011;3515;50.138;8.502;2022-07-09T04:26:21;18;;;10;;
6951;SDS011;3515;50.138;8.502;2022-07-09T04:28:46;19;;;10;;
6951;SDS011;3515;50.138;8.502;2022-07-09T04:31:11;19;;;11;;
6951;SDS011;3515;50.138;8.502;2022-07-09T04:33:36;15;;;8;;
6951;SDS011;3515;50.138;8.502;2022-07-09T04:36:02;14;;;7;;
6951;SDS011;3515;50.138;8.502;2022-07-09T04:38:27;14;;;7;;
6951;SDS011;3515;50.138;8.502;2022-07-09T04:40:52;8;;;4;;
6951;SDS011;3515;50.138;8.502;2022-07-09T04:43:17;7;;;3;;
6951;SDS011;3515;50.138;8.502;2022-07-09T04:45:43;7;;;3;;
6951;SDS011;3515;50.138;8.502;2022-07-09T04:48:08;7;;;3;;
6951;SDS011;3515;50.138;8.502;2022-07-09T04:50:33;7;;;3;;
6951;SDS011;3515;50.138;8.502;2022-07-09T04:52:58;8;;;3;;
6951;SDS011;3515;50.138;8.502;2022-07-09T04:55:24;8;;;4;;
6951;SDS011;3515;50.138;8.502;2022-07-09T04:57:49;8;;;4;;
6951;SDS011;3515;50.138;8.502;2022-07-09T05:00:15;9;;;4;;
6951;SDS011;3515;50.138;8.502;2022-07-09T05:02:40;9;;;4;;
6951;SDS011;3515;50.138;8.502;2022-07-09T05:05:06;10;;;4;;
6951;SDS011;3515;50.138;8.502;2022-07-09T05:07:30;10;;;5;;
6951;SDS011;3515;50.138;8.502;2022-07-09T05:09:55;11;;;5;;
6951;SDS011;3515;50.138;8.502;2022-07-09T05:12:21;11;;;5;;
6951;SDS011;3515;50.138;8.502;2022-07-09T05:14:46;12;;;6;;
6951;SDS011;3515;50.138;8.502;2022-07-09T05:17:11;13;;;6;;
6951;SDS011;3515;50.138;8.502;2022-07-09T05:19:36;13;;;6;;
6951;SDS011;3515;50.138;8.502;2022-07-09T05:22:02;15;;;7;;
6951;SDS011;3515;50.138;8.502;2022-07-09T05:24:27;15;;;7;;
6951;SDS011;3515;50.138;8.502;2022-07-09T05:26:52;17;;;8;;
6951;SDS011;3515;50.138;8.502;2022-07-09T05:29:17;18;;;9;;
6951;SDS011;3515;50.138;8.502;2022-07-09T05:31:43;18;;;9;;
6951;SDS011;3515;50.138;8.502;2022-07-09T05:34:08;19;;;10;;
6951;SDS011;3515;50.138;8.502;2022-07-09T05:36:33;19;;;10;;
6951;SDS011;3515;50.138;8.502;2022-07-09T05:38:59;19;;;10;;
6951;SDS011;3515;50.138;8.502;2022-07-09T05:41:24;19;;;10;;
6951;SDS011;3515;50.138;8.502;2022-07-09T05:43:49;19;;;10;;
6951;SDS011;3515;50.138;8.502;2022-07-09T05:46:14;19;;;10;;
6951;SDS011;3515;50.138;8.502;2022-07-09T05:48:40;18;;;10;;
6951;SDS011;3515;50.138;8.502;2022-07-09T05:51:05;17;;;10;;
6951;SDS011;3515;50.138;8.502;2022-07-09T05:53:30;17;;;9;;
6951;SDS011;3515;50.138;8.502;2022-07-09T05:55:55;17;;;9;;
6951;SDS011;3515;50.138;8.502;2022-07-09T05:58:21;17;;;9;;
6951;SDS011;3515;50.138;8.502;2022-07-09T06:00:46;17;;;10;;
6951;SDS011;3515;50.138;8.502;2022-07-09T06:03:16;18;;;10;;
6951;SDS011;3515;50.138;8.502;2022-07-09T06:05:41;18;;;10;;
6951;SDS011;3515;50.138;8.502;2022-07-09T06:08:07;18;;;11;;
6951;SDS011;3515;50.138;8.502;2022-07-09T06:10:32;19;;;11;;
6951;SDS011;3515;50.138;8.502;2022-07-09T06:12:57;27;;;15;;
6951;SDS011;3515;50.138;8.502;2022-07-09T06:15:23;36;;;19;;
6951;SDS011;3515;50.138;8.502;2022-07-09T06:17:48;40;;;20;;
6951;SDS011;3515;50.138;8.502;2022-07-09T06:20:13;41;;;21;;
6951;SDS011;3515;50.138;8.502;2022-07-09T06:22:39;42;;;21;;
6951;SDS011;3515;50.138;8.502;2022-07-09T06:25:04;41;;;21;;
6951;SDS011;3515;50.138;8.502;2022-07-09T06:27:29;41;;;21;;
6951;SDS011;3515;50.138;8.502;2022-07-09T06:29:54;41;;;20;;
6951;SDS011;3515;50.138;8.502;2022-07-09T06:32:20;34;;;17;;
6951;SDS011;3515;50.138;8.502;2022-07-09T06:34:45;26;;;14;;
6951;SDS011;3515;50.138;8.502;2022-07-09T06:37:10;23;;;13;;
6951;SDS011;3515;50.138;8.502;2022-07-09T06:39:36;25;;;14;;
6951;SDS011;3515;50.138;8.502;2022-07-09T06:42:03;30;;;16;;
6951;SDS011;3515;50.138;8.502;2022-07-09T06:44:26;36;;;19;;
6951;SDS011;3515;50.138;8.502;2022-07-09T06:46:51;44;;;22;;
6951;SDS011;3515;50.138;8.502;2022-07-09T06:49:17;51;;;25;;
6951;SDS011;3515;50.138;8.502;2022-07-09T06:51:42;58;;;28;;
6951;SDS011;3515;50.138;8.502;2022-07-09T06:54:07;64;;;30;;
6951;SDS011;3515;50.138;8.502;2022-07-09T06:56:32;70;;;33;;
6951;SDS011;3515;50.138;8.502;2022-07-09T06:58:58;85;;;37;;
6951;SDS011;3515;50.138;8.502;2022-07-09T07:01:23;95;;;40;;
6951;SDS011;3515;50.138;8.502;2022-07-09T07:03:49;97;;;41;;
6951;SDS011;3515;50.138;8.502;2022-07-09T07:06:14;98;;;40;;
6951;SDS011;3515;50.138;8.502;2022-07-09T07:08:39;98;;;40;;
6951;SDS011;3515;50.138;8.502;2022-07-09T07:11:04;99;;;40;;
6951;SDS011;3515;50.138;8.502;2022-07-09T07:13:30;99;;;41;;
6951;SDS011;3515;50.138;8.502;2022-07-09T07:15:55;99;;;40;;
6951;SDS011;3515;50.138;8.502;2022-07-09T07:18:20;89;;;37;;
6951;SDS011;3515;50.138;8.502;2022-07-09T07:20:45;80;;;34;;
6951;SDS011;3515;50.138;8.502;2022-07-09T07:23:11;78;;;33;;
6951;SDS011;3515;50.138;8.502;2022-07-09T07:25:36;77;;;33;;
6951;SDS011;3515;50.138;8.502;2022-07-09T07:28:01;79;;;33;;
6951;SDS011;3515;50.138;8.502;2022-07-09T07:30:27;80;;;34;;
6951;SDS011;3515;50.138;8.502;2022-07-09T07:32:52;80;;;34;;
6951;SDS011;3515;50.138;8.502;2022-07-09T07:35:17;80;;;34;;
6951;SDS011;3515;50.138;8.502;2022-07-09T07:37:42;82;;;35;;
6951;SDS011;3515;50.138;8.502;2022-07-09T07:40:08;86;;;36;;
6951;SDS011;3515;50.138;8.502;2022-07-09T07:42:33;89;;;37;;
6951;SDS011;3515;50.138;8.502;2022-07-09T07:44:58;92;;;38;;
6951;SDS011;3515;50.138;8.502;2022-07-09T07:47:23;93;;;38;;
6951;SDS011;3515;50.138;8.502;2022-07-09T07:49:49;93;;;38;;
6951;SDS011;3515;50.138;8.502;2022-07-09T07:52:19;94;;;39;;
6951;SDS011;3515;50.138;8.502;2022-07-09T07:54:44;95;;;39;;
6951;SDS011;3515;50.138;8.502;2022-07-09T07:57:09;95;;;39;;
6951;SDS011;3515;50.138;8.502;2022-07-09T07:59:35;103;;;42;;
6951;SDS011;3515;50.138;8.502;2022-07-09T08:02:00;102;;;41;;
6951;SDS011;3515;50.138;8.502;2022-07-09T08:04:25;99;;;40;;
6951;SDS011;3515;50.138;8.502;2022-07-09T08:06:51;98;;;40;;
6951;SDS011;3515;50.138;8.502;2022-07-09T08:09:16;97;;;40;;
6951;SDS011;3515;50.138;8.502;2022-07-09T08:11:42;104;;;42;;
6951;SDS011;3515;50.138;8.502;2022-07-09T08:14:07;102;;;41;;
6951;SDS011;3515;50.138;8.502;2022-07-09T08:16:32;99;;;41;;
6951;SDS011;3515;50.138;8.502;2022-07-09T08:18:58;89;;;37;;
6951;SDS011;3515;50.138;8.502;2022-07-09T08:21:23;88;;;37;;
6951;SDS011;3515;50.138;8.502;2022-07-09T08:23:48;87;;;37;;
6951;SDS011;3515;50.138;8.502;2022-07-09T08:26:13;85;;;37;;
6951;SDS011;3515;50.138;8.502;2022-07-09T08:28:39;83;;;37;;
6951;SDS011;3515;50.138;8.502;2022-07-09T08:31:04;75;;;34;;
6951;SDS011;3515;50.138;8.502;2022-07-09T08:33:29;77;;;35;;
6951;SDS011;3515;50.138;8.502;2022-07-09T08:35:55;78;;;35;;
6951;SDS011;3515;50.138;8.502;2022-07-09T08:38:20;78;;;35;;
6951;SDS011;3515;50.138;8.502;2022-07-09T08:40:47;89;;;39;;
6951;SDS011;3515;50.138;8.502;2022-07-09T08:43:12;100;;;43;;
6951;SDS011;3515;50.138;8.502;2022-07-09T08:45:37;103;;;44;;
6951;SDS011;3515;50.138;8.502;2022-07-09T08:48:03;105;;;44;;
6951;SDS011;3515;50.138;8.502;2022-07-09T08:50:27;96;;;40;;
6951;SDS011;3515;50.138;8.502;2022-07-09T08:52:58;85;;;35;;
6951;SDS011;3515;50.138;8.502;2022-07-09T08:55:23;75;;;31;;
6951;SDS011;3515;50.138;8.502;2022-07-09T08:57:49;65;;;26;;
6951;SDS011;3515;50.138;8.502;2022-07-09T09:00:13;45;;;18;;
6951;SDS011;3515;50.138;8.502;2022-07-09T09:02:39;24;;;9;;
6951;SDS011;3515;50.138;8.502;2022-07-09T09:05:07;13;;;4;;
6951;SDS011;3515;50.138;8.502;2022-07-09T09:07:29;2;;;0;;
6951;SDS011;3515;50.138;8.502;2022-07-09T09:09:54;2;;;0;;
6951;SDS011;3515;50.138;8.502;2022-07-09T09:12:26;2;;;0;;
6951;SDS011;3515;50.138;8.502;2022-07-09T09:14:48;2;;;0;;
6951;SDS011;3515;50.138;8.502;2022-07-09T09:17:10;3;;;0;;
6951;SDS011;3515;50.138;8.502;2022-07-09T09:19:35;3;;;0;;
6951;SDS011;3515;50.138;8.502;2022-07-09T09:22:01;3;;;0;;
6951;SDS011;3515;50.138;8.502;2022-07-09T09:24:26;3;;;0;;
6951;SDS011;3515;50.138;8.502;2022-07-09T09:26:51;3;;;0;;
6951;SDS011;3515;50.138;8.502;2022-07-09T09:29:16;3;;;0;;
6951;SDS011;3515;50.138;8.502;2022-07-09T09:31:44;3;;;0;;
6951;SDS011;3515;50.138;8.502;2022-07-09T09:34:10;3;;;0;;
6951;SDS011;3515;50.138;8.502;2022-07-09T09:36:33;2;;;0;;
6951;SDS011;3515;50.138;8.502;2022-07-09T09:41:24;2;;;0;;
6951;SDS011;3515;50.138;8.502;2022-07-09T09:43:48;2;;;0;;
6951;SDS011;3515;50.138;8.502;2022-07-09T09:46:13;2;;;0;;
6951;SDS011;3515;50.138;8.502;2022-07-09T09:48:38;1;;;0;;
6951;SDS011;3515;50.138;8.502;2022-07-09T09:51:04;1;;;0;;
6951;SDS011;3515;50.138;8.502;2022-07-09T09:53:29;1;;;0;;
6951;SDS011;3515;50.138;8.502;2022-07-09T09:55:54;1;;;0;;
6951;SDS011;3515;50.138;8.502;2022-07-09T09:58:19;1;;;0;;
6951;SDS011;3515;50.138;8.502;2022-07-09T10:00:45;1;;;0;;
6951;SDS011;3515;50.138;8.502;2022-07-09T10:03:17;1;;;0;;
6951;SDS011;3515;50.138;8.502;2022-07-09T10:05:40;1;;;0;;
6951;SDS011;3515;50.138;8.502;2022-07-09T10:08:05;2;;;0;;
6951;SDS011;3515;50.138;8.502;2022-07-09T10:10:30;2;;;0;;
6951;SDS011;3515;50.138;8.502;2022-07-09T10:12:56;2;;;0;;
6951;SDS011;3515;50.138;8.502;2022-07-09T10:15:22;2;;;0;;
6951;SDS011;3515;50.138;8.502;2022-07-09T10:17:46;4;;;0;;
6951;SDS011;3515;50.138;8.502;2022-07-09T10:20:11;4;;;0;;
6951;SDS011;3515;50.138;8.502;2022-07-09T10:22:37;4;;;0;;
6951;SDS011;3515;50.138;8.502;2022-07-09T10:25:02;5;;;0;;
6951;SDS011;3515;50.138;8.502;2022-07-09T10:27:27;4;;;0;;
6951;SDS011;3515;50.138;8.502;2022-07-09T10:29:53;5;;;0;;
6951;SDS011;3515;50.138;8.502;2022-07-09T10:32:21;5;;;0;;
6951;SDS011;3515;50.138;8.502;2022-07-09T10:34:43;4;;;0;;
6951;SDS011;3515;50.138;8.502;2022-07-09T10:37:08;3;;;0;;
6951;SDS011;3515;50.138;8.502;2022-07-09T10:39:34;4;;;0;;
6951;SDS011;3515;50.138;8.502;2022-07-09T10:42:00;4;;;0;;
6951;SDS011;3515;50.138;8.502;2022-07-09T10:44:25;3;;;0;;
6951;SDS011;3515;50.138;8.502;2022-07-09T10:46:55;4;;;0;;
6951;SDS011;3515;50.138;8.502;2022-07-09T10:49:14;4;;;0;;
6951;SDS011;3515;50.138;8.502;2022-07-09T10:51:40;4;;;0;;
6951;SDS011;3515;50.138;8.502;2022-07-09T10:54:20;4;;;0;;
6951;SDS011;3515;50.138;8.502;2022-07-09T10:56:30;3;;;0;;
6951;SDS011;3515;50.138;8.502;2022-07-09T10:58:55;2;;;0;;
6951;SDS011;3515;50.138;8.502;2022-07-09T11:01:22;2;;;0;;
6951;SDS011;3515;50.138;8.502;2022-07-09T11:03:48;2;;;0;;
6951;SDS011;3515;50.138;8.502;2022-07-09T11:06:11;2;;;0;;
6951;SDS011;3515;50.138;8.502;2022-07-09T11:08:37;2;;;0;;
6951;SDS011;3515;50.138;8.502;2022-07-09T11:11:02;2;;;0;;
6951;SDS011;3515;50.138;8.502;2022-07-09T11:13:27;2;;;0;;
6951;SDS011;3515;50.138;8.502;2022-07-09T11:15:58;2;;;0;;
6951;SDS011;3515;50.138;8.502;2022-07-09T11:18:18;2;;;0;;
6951;SDS011;3515;50.138;8.502;2022-07-09T11:20:44;3;;;0;;
6951;SDS011;3515;50.138;8.502;2022-07-09T11:23:08;3;;;0;;
6951;SDS011;3515;50.138;8.502;2022-07-09T11:25:33;3;;;0;;
6951;SDS011;3515;50.138;8.502;2022-07-09T11:27:59;3;;;0;;
6951;SDS011;3515;50.138;8.502;2022-07-09T11:30:24;3;;;0;;
6951;SDS011;3515;50.138;8.502;2022-07-09T11:32:49;3;;;0;;
6951;SDS011;3515;50.138;8.502;2022-07-09T11:37:44;3;;;0;;
6951;SDS011;3515;50.138;8.502;2022-07-09T11:40:06;3;;;0;;
6951;SDS011;3515;50.138;8.502;2022-07-09T11:42:30;3;;;0;;
6951;SDS011;3515;50.138;8.502;2022-07-09T11:44:56;3;;;0;;
6951;SDS011;3515;50.138;8.502;2022-07-09T11:47:31;3;;;0;;
6951;SDS011;3515;50.138;8.502;2022-07-09T11:49:46;3;;;0;;
6951;SDS011;3515;50.138;8.502;2022-07-09T11:52:19;3;;;0;;
6951;SDS011;3515;50.138;8.502;2022-07-09T11:54:36;3;;;0;;
6951;SDS011;3515;50.138;8.502;2022-07-09T11:57:02;2;;;0;;
6951;SDS011;3515;50.138;8.502;2022-07-09T11:59:27;2;;;0;;
6951;SDS011;3515;50.138;8.502;2022-07-09T12:01:52;2;;;0;;
6951;SDS011;3515;50.138;8.502;2022-07-09T12:04:18;2;;;0;;
6951;SDS011;3515;50.138;8.502;2022-07-09T12:06:46;2;;;0;;
6951;SDS011;3515;50.138;8.502;2022-07-09T12:09:08;2;;;0;;
6951;SDS011;3515;50.138;8.502;2022-07-09T12:11:33;2;;;0;;
6951;SDS011;3515;50.138;8.502;2022-07-09T12:13:58;2;;;0;;
6951;SDS011;3515;50.138;8.502;2022-07-09T12:16:24;2;;;0;;
6951;SDS011;3515;50.138;8.502;2022-07-09T12:18:49;2;;;0;;
6951;SDS011;3515;50.138;8.502;2022-07-09T12:21:14;2;;;0;;
6951;SDS011;3515;50.138;8.502;2022-07-09T12:23:40;2;;;0;;
6951;SDS011;3515;50.138;8.502;2022-07-09T12:26:05;2;;;0;;
6951;SDS011;3515;50.138;8.502;2022-07-09T12:28:30;2;;;0;;
6951;SDS011;3515;50.138;8.502;2022-07-09T12:30:55;2;;;0;;
6951;SDS011;3515;50.138;8.502;2022-07-09T12:33:20;2;;;0;;
6951;SDS011;3515;50.138;8.502;2022-07-09T12:35:46;2;;;0;;
6951;SDS011;3515;50.138;8.502;2022-07-09T12:38:11;2;;;0;;
6951;SDS011;3515;50.138;8.502;2022-07-09T12:40:36;2;;;0;;
6951;SDS011;3515;50.138;8.502;2022-07-09T12:43:02;2;;;0;;
6951;SDS011;3515;50.138;8.502;2022-07-09T12:45:33;2;;;0;;
6951;SDS011;3515;50.138;8.502;2022-07-09T12:47:57;1;;;0;;
6951;SDS011;3515;50.138;8.502;2022-07-09T12:50:22;1;;;0;;
6951;SDS011;3515;50.138;8.502;2022-07-09T12:52:47;1;;;0;;
6951;SDS011;3515;50.138;8.502;2022-07-09T12:55:13;1;;;0;;
6951;SDS011;3515;50.138;8.502;2022-07-09T12:57:38;1;;;0;;
6951;SDS011;3515;50.138;8.502;2022-07-09T13:00:04;2;;;0;;
6951;SDS011;3515;50.138;8.502;2022-07-09T13:02:28;3;;;0;;
6951;SDS011;3515;50.138;8.502;2022-07-09T13:04:54;3;;;0;;
6951;SDS011;3515;50.138;8.502;2022-07-09T13:07:19;3;;;0;;
6951;SDS011;3515;50.138;8.502;2022-07-09T13:09:44;3;;;0;;
6951;SDS011;3515;50.138;8.502;2022-07-09T13:12:10;3;;;0;;
6951;SDS011;3515;50.138;8.502;2022-07-09T13:14:35;3;;;0;;
6951;SDS011;3515;50.138;8.502;2022-07-09T13:17:00;3;;;0;;
6951;SDS011;3515;50.138;8.502;2022-07-09T13:19:25;3;;;0;;
6951;SDS011;3515;50.138;8.502;2022-07-09T13:21:51;2;;;0;;
6951;SDS011;3515;50.138;8.502;2022-07-09T13:24:16;2;;;0;;
6951;SDS011;3515;50.138;8.502;2022-07-09T13:26:41;2;;;0;;
6951;SDS011;3515;50.138;8.502;2022-07-09T13:29:06;2;;;0;;
6951;SDS011;3515;50.138;8.502;2022-07-09T13:31:32;2;;;0;;
6951;SDS011;3515;50.138;8.502;2022-07-09T13:33:57;2;;;0;;
6951;SDS011;3515;50.138;8.502;2022-07-09T13:36:22;2;;;0;;
6951;SDS011;3515;50.138;8.502;2022-07-09T13:38:47;2;;;0;;
6951;SDS011;3515;50.138;8.502;2022-07-09T13:41:12;2;;;0;;
6951;SDS011;3515;50.138;8.502;2022-07-09T13:43:38;2;;;0;;
6951;SDS011;3515;50.138;8.502;2022-07-09T13:46:03;2;;;0;;
6951;SDS011;3515;50.138;8.502;2022-07-09T13:48:28;2;;;0;;
6951;SDS011;3515;50.138;8.502;2022-07-09T13:50:54;2;;;0;;
6951;SDS011;3515;50.138;8.502;2022-07-09T13:53:19;2;;;0;;
6951;SDS011;3515;50.138;8.502;2022-07-09T13:55:46;2;;;0;;
6951;SDS011;3515;50.138;8.502;2022-07-09T13:58:12;2;;;0;;
6951;SDS011;3515;50.138;8.502;2022-07-09T14:00:37;2;;;0;;
6951;SDS011;3515;50.138;8.502;2022-07-09T14:03:02;2;;;0;;
6951;SDS011;3515;50.138;8.502;2022-07-09T14:05:27;2;;;0;;
6951;SDS011;3515;50.138;8.502;2022-07-09T14:07:53;2;;;0;;
6951;SDS011;3515;50.138;8.502;2022-07-09T14:10:18;2;;;0;;
6951;SDS011;3515;50.138;8.502;2022-07-09T14:12:43;2;;;0;;
6951;SDS011;3515;50.138;8.502;2022-07-09T14:15:09;2;;;0;;
6951;SDS011;3515;50.138;8.502;2022-07-09T14:17:34;3;;;0;;
6951;SDS011;3515;50.138;8.502;2022-07-09T14:19:59;3;;;0;;
6951;SDS011;3515;50.138;8.502;2022-07-09T14:22:24;3;;;0;;
6951;SDS011;3515;50.138;8.502;2022-07-09T14:24:50;2;;;0;;
6951;SDS011;3515;50.138;8.502;2022-07-09T14:27:15;2;;;0;;
6951;SDS011;3515;50.138;8.502;2022-07-09T14:29:40;2;;;0;;
6951;SDS011;3515;50.138;8.502;2022-07-09T14:32:06;2;;;0;;
6951;SDS011;3515;50.138;8.502;2022-07-09T14:34:31;2;;;0;;
6951;SDS011;3515;50.138;8.502;2022-07-09T14:36:56;1;;;0;;
6951;SDS011;3515;50.138;8.502;2022-07-09T14:39:21;2;;;0;;
6951;SDS011;3515;50.138;8.502;2022-07-09T14:41:46;1;;;0;;
6951;SDS011;3515;50.138;8.502;2022-07-09T14:44:12;1;;;0;;
6951;SDS011;3515;50.138;8.502;2022-07-09T14:46:37;2;;;0;;
6951;SDS011;3515;50.138;8.502;2022-07-09T14:49:02;2;;;0;;
6951;SDS011;3515;50.138;8.502;2022-07-09T14:51:28;2;;;0;;
6951;SDS011;3515;50.138;8.502;2022-07-09T14:53:53;2;;;0;;
6951;SDS011;3515;50.138;8.502;2022-07-09T14:56:18;2;;;0;;
6951;SDS011;3515;50.138;8.502;2022-07-09T14:58:43;2;;;0;;
6951;SDS011;3515;50.138;8.502;2022-07-09T15:01:09;2;;;0;;
6951;SDS011;3515;50.138;8.502;2022-07-09T15:03:34;2;;;0;;
6951;SDS011;3515;50.138;8.502;2022-07-09T15:05:59;2;;;0;;
6951;SDS011;3515;50.138;8.502;2022-07-09T15:08:24;2;;;0;;
6951;SDS011;3515;50.138;8.502;2022-07-09T15:10:49;1;;;0;;
6951;SDS011;3515;50.138;8.502;2022-07-09T15:13:15;2;;;0;;
6951;SDS011;3515;50.138;8.502;2022-07-09T15:15:40;2;;;0;;
6951;SDS011;3515;50.138;8.502;2022-07-09T15:18:05;2;;;0;;
6951;SDS011;3515;50.138;8.502;2022-07-09T15:20:31;2;;;0;;
6951;SDS011;3515;50.138;8.502;2022-07-09T15:22:56;2;;;0;;
6951;SDS011;3515;50.138;8.502;2022-07-09T15:25:21;2;;;0;;
6951;SDS011;3515;50.138;8.502;2022-07-09T15:27:46;2;;;0;;
6951;SDS011;3515;50.138;8.502;2022-07-09T15:30:12;2;;;0;;
6951;SDS011;3515;50.138;8.502;2022-07-09T15:32:37;2;;;0;;
6951;SDS011;3515;50.138;8.502;2022-07-09T15:35:02;2;;;0;;
6951;SDS011;3515;50.138;8.502;2022-07-09T15:37:27;2;;;0;;
6951;SDS011;3515;50.138;8.502;2022-07-09T15:39:53;2;;;0;;
6951;SDS011;3515;50.138;8.502;2022-07-09T15:42:18;2;;;0;;
6951;SDS011;3515;50.138;8.502;2022-07-09T15:44:43;3;;;0;;
6951;SDS011;3515;50.138;8.502;2022-07-09T15:47:08;3;;;0;;
6951;SDS011;3515;50.138;8.502;2022-07-09T15:49:33;3;;;0;;
6951;SDS011;3515;50.138;8.502;2022-07-09T15:51:59;3;;;0;;
6951;SDS011;3515;50.138;8.502;2022-07-09T15:54:24;3;;;0;;
6951;SDS011;3515;50.138;8.502;2022-07-09T15:56:49;3;;;0;;
6951;SDS011;3515;50.138;8.502;2022-07-09T15:59:14;3;;;0;;
6951;SDS011;3515;50.138;8.502;2022-07-09T16:01:40;3;;;0;;
6951;SDS011;3515;50.138;8.502;2022-07-09T16:04:05;2;;;0;;
6951;SDS011;3515;50.138;8.502;2022-07-09T16:06:30;2;;;0;;
6951;SDS011;3515;50.138;8.502;2022-07-09T16:08:55;2;;;0;;
6951;SDS011;3515;50.138;8.502;2022-07-09T16:11:21;2;;;0;;
6951;SDS011;3515;50.138;8.502;2022-07-09T16:13:46;2;;;0;;
6951;SDS011;3515;50.138;8.502;2022-07-09T16:16:11;2;;;0;;
6951;SDS011;3515;50.138;8.502;2022-07-09T16:18:36;2;;;0;;
6951;SDS011;3515;50.138;8.502;2022-07-09T16:21:02;2;;;0;;
6951;SDS011;3515;50.138;8.502;2022-07-09T16:23:27;2;;;0;;
6951;SDS011;3515;50.138;8.502;2022-07-09T16:25:52;2;;;0;;
6951;SDS011;3515;50.138;8.502;2022-07-09T16:28:17;2;;;0;;
6951;SDS011;3515;50.138;8.502;2022-07-09T16:30:43;2;;;0;;